Time;durP1;ratioP1;P1;durP2;ratioP2;P2;SDS_P1;SDS_P2;PMS_P1;PMS_P2;Temp;Humidity;BMP_temperature;BMP_pressure;BME280_temperature;BME280_humidity;BME280_pressure;Samples;Min_cycle;Max_cycle;Signal;HPM_P1;HPM_P2
2023/10/10 00:02:28;;;;;;;27.00;16.70;;;;;;;5.01;84.25;100956.76;108946;277;38268;-70
2023/10/10 00:05:11;;;;;;;22.40;16.10;;;;;;;5.01;84.28;100955.73;108984;277;39280;-70
2023/10/10 00:07:47;;;;;;;24.40;16.30;;;;;;;4.96;84.07;100955.23;108954;277;39081;-69
2023/10/10 00:10:27;;;;;;;21.20;15.30;;;;;;;4.93;83.95;100956.13;108891;277;38357;-67
2023/10/10 00:13:07;;;;;;;24.60;15.50;;;;;;;4.87;83.99;100955.80;108948;277;38254;-70
2023/10/10 00:16:05;;;;;;;23.60;15.80;;;;;;;4.85;83.90;100957.35;109006;277;38223;-69
2023/10/10 00:18:45;;;;;;;22.80;17.00;;;;;;;4.80;83.85;100955.67;108972;277;39754;-68
2023/10/10 00:21:24;;;;;;;22.90;16.40;;;;;;;4.73;83.74;100959.67;108986;277;39534;-69
2023/10/10 00:24:06;;;;;;;24.10;16.40;;;;;;;4.64;83.59;100961.79;109006;277;39320;-68
2023/10/10 00:26:47;;;;;;;26.00;17.70;;;;;;;4.58;83.51;100959.40;108998;277;39838;-68
2023/10/10 00:29:26;;;;;;;23.60;14.90;;;;;;;4.52;83.48;100963.56;109008;277;38165;-68
2023/10/10 00:32:12;;;;;;;23.40;15.80;;;;;;;4.46;83.43;100966.35;108974;277;39593;-70
2023/10/10 00:34:50;;;;;;;25.60;16.10;;;;;;;4.40;83.50;100967.41;108982;277;39837;-69
2023/10/10 00:37:29;;;;;;;25.30;17.80;;;;;;;4.35;83.78;100971.56;109008;277;38179;-69
2023/10/10 00:40:08;;;;;;;24.50;17.10;;;;;;;4.32;83.88;100970.54;108978;277;38485;-69
2023/10/10 00:42:42;;;;;;;22.90;15.90;;;;;;;4.28;83.86;100970.02;108971;277;38501;-69
2023/10/10 00:45:16;;;;;;;21.60;15.20;;;;;;;4.22;83.79;100967.11;108962;277;38795;-68
2023/10/10 00:47:53;;;;;;;23.00;16.00;;;;;;;4.18;83.71;100962.45;108980;277;38194;-71
2023/10/10 00:50:34;;;;;;;23.10;15.80;;;;;;;4.15;83.82;100965.23;108969;277;38371;-71
2023/10/10 00:53:11;;;;;;;23.80;15.60;;;;;;;4.10;83.80;100962.13;108939;277;38462;-68
2023/10/10 00:55:55;;;;;;;24.10;16.60;;;;;;;4.04;83.70;100962.30;108948;277;38355;-69
2023/10/10 00:58:35;;;;;;;24.80;16.10;;;;;;;3.99;83.54;100961.11;108990;277;38818;-70
2023/10/10 01:01:14;;;;;;;21.00;15.00;;;;;;;3.91;83.60;100960.61;108964;277;38338;-70
2023/10/10 01:03:51;;;;;;;22.00;16.10;;;;;;;3.87;83.78;100954.23;108990;277;39276;-71
2023/10/10 01:06:26;;;;;;;22.70;16.10;;;;;;;3.85;83.68;100956.30;109029;277;39602;-70
2023/10/10 01:09:15;;;;;;;24.30;17.80;;;;;;;3.81;83.81;100955.61;109069;277;37855;-68
2023/10/10 01:11:54;;;;;;;22.90;15.90;;;;;;;3.75;83.81;100951.47;109028;277;38164;-69
2023/10/10 01:14:30;;;;;;;22.70;16.00;;;;;;;3.68;83.59;100947.68;108936;277;175732;-70
2023/10/10 01:17:06;;;;;;;24.50;16.40;;;;;;;3.64;83.68;100947.69;109011;277;38151;-68
2023/10/10 01:19:48;;;;;;;24.60;16.30;;;;;;;3.63;83.93;100948.03;108992;277;38258;-68
2023/10/10 01:22:37;;;;;;;23.70;17.20;;;;;;;3.61;84.06;100948.20;109052;277;39094;-69
2023/10/10 01:28:03;;;;;;;26.20;17.10;;;;;;;3.52;84.10;100948.04;108938;277;38263;-69
2023/10/10 01:30:57;;;;;;;27.10;18.00;;;;;;;3.49;84.30;100950.10;108910;277;38167;-69
2023/10/10 01:36:20;;;;;;;26.40;18.30;;;;;;;3.42;84.00;100942.34;108977;277;39648;-70
2023/10/10 01:39:23;;;;;;;24.40;17.40;;;;;;;3.38;84.15;100946.14;108969;277;38482;-70
2023/10/10 01:42:04;;;;;;;26.10;18.20;;;;;;;3.35;84.23;100945.27;108867;277;38587;-69
2023/10/10 01:44:43;;;;;;;24.60;17.50;;;;;;;3.30;84.15;100944.41;108914;277;40181;-68
2023/10/10 01:47:26;;;;;;;22.90;16.20;;;;;;;3.25;84.08;100945.61;108940;277;39476;-69
2023/10/10 01:50:08;;;;;;;23.60;16.90;;;;;;;3.20;84.00;100944.05;108987;277;39236;-70
2023/10/10 01:52:45;;;;;;;26.20;16.40;;;;;;;3.15;83.90;100951.10;109027;277;40009;-70
2023/10/10 01:55:24;;;;;;;24.60;16.80;;;;;;;3.09;83.80;100952.48;108971;277;39860;-71
2023/10/10 01:58:01;;;;;;;23.80;17.60;;;;;;;3.05;84.07;100952.98;109055;277;38252;-70
2023/10/10 02:00:36;;;;;;;24.60;16.80;;;;;;;3.01;84.05;100959.18;108935;277;173073;-70
2023/10/10 02:03:13;;;;;;;23.60;16.90;;;;;;;2.97;83.93;100958.31;108989;277;38314;-70
2023/10/10 02:05:51;;;;;;;21.90;15.40;;;;;;;2.94;83.99;100963.98;108993;277;38778;-70
2023/10/10 02:08:26;;;;;;;22.90;15.80;;;;;;;2.89;83.77;100964.31;108948;277;39721;-70
2023/10/10 02:11:02;;;;;;;25.20;17.00;;;;;;;2.86;84.03;100966.20;108943;277;38446;-69
2023/10/10 02:13:39;;;;;;;24.60;17.00;;;;;;;2.82;83.91;100968.25;108912;277;38316;-69
2023/10/10 02:16:34;;;;;;;24.00;16.70;;;;;;;2.78;84.16;100967.39;108932;277;38157;-68
2023/10/10 02:19:23;;;;;;;22.00;16.10;;;;;;;2.74;84.01;100967.54;108914;277;38453;-68
2023/10/10 02:22:22;;;;;;;25.20;16.50;;;;;;;2.72;84.03;100966.50;108966;277;38758;-70
2023/10/10 02:25:36;;;;;;;25.90;17.40;;;;;;;2.72;84.17;100970.46;108917;277;38329;-69
2023/10/10 02:28:10;;;;;;;24.40;17.90;;;;;;;2.68;84.13;100972.86;108958;277;38415;-68
2023/10/10 02:30:53;;;;;;;25.60;18.40;;;;;;;2.65;84.10;100978.88;109011;277;38276;-69
2023/10/10 02:33:31;;;;;;;23.10;17.00;;;;;;;2.58;83.96;100977.14;108908;277;38406;-69
2023/10/10 02:36:30;;;;;;;22.50;15.40;;;;;;;2.51;83.72;100984.49;108876;277;38130;-69
2023/10/10 02:39:27;;;;;;;22.50;16.40;;;;;;;2.46;83.78;100987.74;108936;277;38487;-69
2023/10/10 02:42:13;;;;;;;24.70;17.30;;;;;;;2.45;83.88;100986.55;108981;277;39342;-70
2023/10/10 02:44:52;;;;;;;25.90;18.20;;;;;;;2.44;83.92;100985.33;108977;277;38325;-71
2023/10/10 02:47:33;;;;;;;27.80;18.80;;;;;;;2.38;83.78;100981.34;108533;277;613110;-70
2023/10/10 02:50:14;;;;;;;23.60;17.80;;;;;;;2.31;83.90;100978.20;108983;277;38778;-70
2023/10/10 02:52:48;;;;;;;25.70;18.50;;;;;;;2.28;83.93;100977.66;109066;277;38425;-69
2023/10/10 02:55:33;;;;;;;25.10;17.60;;;;;;;2.27;84.07;100974.73;109024;277;39712;-70
2023/10/10 02:58:20;;;;;;;25.10;18.70;;;;;;;2.28;84.26;100978.36;108799;277;173179;-69
2023/10/10 03:01:03;;;;;;;27.20;19.60;;;;;;;2.26;84.18;100979.38;108990;277;38574;-69
2023/10/10 03:03:41;;;;;;;29.20;20.40;;;;;;;2.23;84.27;100981.09;108934;277;38491;-69
2023/10/10 03:06:18;;;;;;;31.90;21.50;;;;;;;2.20;84.20;100983.65;108966;277;38292;-69
2023/10/10 03:09:06;;;;;;;25.40;19.40;;;;;;;2.16;84.24;100985.34;108879;277;38773;-70
2023/10/10 03:11:53;;;;;;;27.90;20.50;;;;;;;2.13;84.35;100978.79;108921;277;38260;-68
2023/10/10 03:14:32;;;;;;;28.00;19.70;;;;;;;2.12;84.37;100980.16;108951;277;38177;-68
2023/10/10 03:17:31;;;;;;;28.70;21.30;;;;;;;2.12;84.64;100978.78;108949;277;38974;-69
2023/10/10 03:20:13;;;;;;;32.10;21.40;;;;;;;2.12;84.72;100981.36;108938;277;40162;-69
2023/10/10 03:23:09;;;;;;;32.00;21.20;;;;;;;2.10;84.77;100984.79;108940;277;39560;-69
2023/10/10 03:25:51;;;;;;;30.70;19.70;;;;;;;2.07;84.79;100984.42;108993;277;38439;-69
2023/10/10 03:28:33;;;;;;;27.70;18.60;;;;;;;2.05;84.71;100989.40;108958;277;38486;-68
2023/10/10 03:31:23;;;;;;;30.80;20.60;;;;;;;2.02;84.35;100990.94;108988;277;38179;-69
2023/10/10 03:34:19;;;;;;;28.80;20.50;;;;;;;1.97;84.29;100994.34;109024;277;38380;-70
2023/10/10 03:37:19;;;;;;;28.30;20.80;;;;;;;1.92;84.29;100991.73;109039;277;38250;-70
2023/10/10 03:40:20;;;;;;;32.60;21.00;;;;;;;1.88;84.32;100993.23;109040;277;38142;-69
2023/10/10 05:26:05;;;;;;;26.10;19.60;;;;;;;2.22;88.23;101064.91;108933;277;38750;-69
2023/10/10 05:28:47;;;;;;;25.90;19.10;;;;;;;2.32;88.45;101064.29;108936;277;38491;-69
2023/10/10 05:31:30;;;;;;;26.90;19.80;;;;;;;2.43;88.57;101065.57;108982;277;39020;-69
2023/10/10 05:34:09;;;;;;;28.10;20.00;;;;;;;2.54;88.65;101064.60;108940;277;38770;-69
2023/10/10 05:36:44;;;;;;;31.50;22.00;;;;;;;2.66;89.07;101064.16;108993;277;38396;-69
2023/10/10 05:39:32;;;;;;;29.30;20.10;;;;;;;2.75;89.23;101067.65;108950;277;38381;-68
2023/10/10 05:42:20;;;;;;;25.80;19.70;;;;;;;2.83;88.88;101071.14;108919;277;38171;-69
2023/10/10 05:44:56;;;;;;;26.00;18.70;;;;;;;2.93;88.87;101080.83;108975;277;39533;-71
2023/10/10 05:47:35;;;;;;;25.10;19.80;;;;;;;3.07;89.01;101082.62;109031;277;38234;-69
2023/10/10 05:50:12;;;;;;;25.90;19.30;;;;;;;3.21;89.22;101083.52;109031;277;38477;-69
2023/10/10 05:52:51;;;;;;;30.00;21.70;;;;;;;3.32;89.02;101083.05;108987;277;39252;-67
2023/10/10 05:55:33;;;;;;;28.70;19.70;;;;;;;3.42;89.19;101084.45;108990;277;39397;-69
2023/10/10 05:58:08;;;;;;;28.10;19.50;;;;;;;3.52;89.22;101089.33;108943;277;38478;-68
2023/10/10 06:00:44;;;;;;;24.90;18.30;;;;;;;3.62;89.01;101088.99;108983;277;38367;-71
2023/10/10 06:03:19;;;;;;;22.70;17.90;;;;;;;3.73;89.08;101087.11;108930;277;38208;-69
2023/10/10 06:05:58;;;;;;;26.50;18.90;;;;;;;3.84;89.26;101085.40;108917;277;38132;-69
2023/10/10 06:08:36;;;;;;;25.70;20.00;;;;;;;3.99;89.44;101084.38;108939;277;39154;-68
2023/10/10 06:11:13;;;;;;;25.00;18.90;;;;;;;4.16;89.75;101085.92;108918;277;38489;-69
2023/10/10 06:13:53;;;;;;;25.80;18.80;;;;;;;4.33;89.82;101086.61;108963;277;38421;-70
2023/10/10 06:16:32;;;;;;;23.50;19.20;;;;;;;4.44;89.53;101082.96;108919;277;38416;-69
2023/10/10 06:19:20;;;;;;;24.60;19.10;;;;;;;4.55;89.52;101089.85;108940;277;38528;-69
2023/10/10 06:22:02;;;;;;;23.50;20.40;;;;;;;4.66;89.65;101091.05;108869;277;175687;-69
2023/10/10 06:24:36;;;;;;;27.90;19.50;;;;;;;4.79;89.56;101094.64;108991;277;39647;-70
2023/10/10 06:27:13;;;;;;;24.30;19.50;;;;;;;4.92;89.67;101099.27;109076;277;39363;-70
2023/10/10 06:29:49;;;;;;;22.80;19.60;;;;;;;5.03;89.47;101103.38;109044;277;38803;-70
2023/10/10 06:32:25;;;;;;;24.80;19.20;;;;;;;5.14;89.31;101106.11;108997;277;38417;-70
2023/10/10 06:35:25;;;;;;;25.30;20.00;;;;;;;5.22;89.17;101109.89;108922;277;38866;-69
2023/10/10 06:37:59;;;;;;;25.20;19.80;;;;;;;5.28;88.95;101108.65;108950;277;38253;-69
2023/10/10 06:40:35;;;;;;;24.50;19.40;;;;;;;5.36;88.94;101106.19;108931;277;38778;-70
2023/10/10 06:43:10;;;;;;;27.70;19.80;;;;;;;5.48;88.79;101112.88;108966;277;39867;-68
2023/10/10 06:45:48;;;;;;;28.20;20.80;;;;;;;5.56;88.78;101115.09;108934;277;38746;-70
2023/10/10 06:48:40;;;;;;;27.60;20.70;;;;;;;5.65;88.62;101120.23;108982;277;38511;-72
2023/10/10 06:51:21;;;;;;;25.20;19.50;;;;;;;5.73;88.36;101126.07;108976;277;39325;-71
2023/10/10 06:53:57;;;;;;;26.90;18.40;;;;;;;5.82;88.23;101124.98;108962;277;38816;-70
2023/10/10 06:56:45;;;;;;;26.40;19.60;;;;;;;5.92;88.26;101125.45;108976;277;38453;-70
2023/10/10 06:59:25;;;;;;;24.90;19.30;;;;;;;6.02;88.34;101126.08;108919;277;38127;-68
2023/10/10 07:02:01;;;;;;;27.30;19.80;;;;;;;6.11;87.94;101128.25;109002;277;38275;-70
2023/10/10 07:04:39;;;;;;;25.00;19.40;;;;;;;6.20;87.80;101131.83;108950;277;38233;-70
2023/10/10 07:07:18;;;;;;;25.90;18.90;;;;;;;6.27;87.65;101135.94;108974;277;39026;-70
2023/10/10 07:09:57;;;;;;;23.50;17.70;;;;;;;6.37;87.67;101138.80;108941;277;40104;-70
2023/10/10 07:12:34;;;;;;;21.80;16.80;;;;;;;6.50;87.79;101136.60;108971;277;38400;-69
2023/10/10 07:15:14;;;;;;;22.00;17.90;;;;;;;6.64;87.93;101138.38;109012;277;38181;-68
2023/10/10 07:18:00;;;;;;;25.30;19.20;;;;;;;6.77;87.94;101138.94;108865;277;175573;-68
2023/10/10 07:23:22;;;;;;;18.70;15.10;;;;;;;7.04;87.86;101134.33;109033;277;38364;-70
2023/10/10 07:26:01;;;;;;;24.60;17.00;;;;;;;7.20;88.14;101136.22;109014;277;38224;-68
2023/10/10 07:28:49;;;;;;;21.40;16.40;;;;;;;7.35;87.77;101143.32;108986;277;39383;-69
2023/10/10 07:31:25;;;;;;;;;;;;;;;7.52;87.89;101139.80;108909;277;38382;-70
2023/10/10 07:34:03;;;;;;;23.00;17.20;;;;;;;7.67;88.30;101139.44;108930;277;38314;-70
2023/10/10 07:36:39;;;;;;;22.60;16.70;;;;;;;7.89;89.33;101142.77;108964;277;39015;-69
2023/10/10 07:42:09;;;;;;;18.60;14.90;;;;;;;8.53;88.58;101132.40;108948;269;38269;-70
2023/10/10 07:44:43;;;;;;;17.80;14.70;;;;;;;8.84;88.07;101137.41;108960;277;38641;-71
2023/10/10 07:47:25;;;;;;;17.70;14.10;;;;;;;9.25;89.09;101134.88;108977;276;38430;-70
2023/10/10 07:50:08;;;;;;;18.30;14.20;;;;;;;10.01;91.11;101131.98;108945;277;40536;-71
2023/10/10 07:52:42;;;;;;;16.00;14.30;;;;;;;10.98;88.76;101136.34;109027;277;39335;-69
2023/10/10 07:55:22;;;;;;;16.50;12.50;;;;;;;11.88;86.13;101133.02;109046;277;39652;-69
2023/10/10 07:58:06;;;;;;;13.80;10.80;;;;;;;12.84;82.30;101130.20;109078;277;38923;-72
2023/10/10 08:00:44;;;;;;;15.30;10.60;;;;;;;13.58;77.11;101124.70;109054;277;38658;-71
2023/10/10 08:03:22;;;;;;;11.80;10.40;;;;;;;13.95;74.32;101118.19;109023;277;38260;-71
2023/10/10 08:05:58;;;;;;;11.70;10.40;;;;;;;14.03;71.18;101123.44;109020;277;39178;-72
2023/10/10 08:08:35;;;;;;;11.20;10.10;;;;;;;13.94;69.77;101126.96;108954;277;38163;-72
2023/10/10 08:11:13;;;;;;;10.20;8.60;;;;;;;13.74;68.64;101125.66;108990;277;38493;-71
2023/10/10 08:13:48;;;;;;;9.90;8.60;;;;;;;13.58;68.09;101124.16;108934;277;38713;-71
2023/10/10 08:16:29;;;;;;;9.00;8.10;;;;;;;13.42;67.21;101129.01;108946;277;38137;-71
2023/10/10 08:19:09;;;;;;;9.90;8.40;;;;;;;13.24;67.57;101126.85;108917;277;38425;-72
2023/10/10 08:21:50;;;;;;;11.00;8.10;;;;;;;13.09;67.76;101127.02;108949;277;39936;-70
2023/10/10 08:24:25;;;;;;;9.50;7.90;;;;;;;12.90;67.42;101123.34;108919;277;38283;-70
2023/10/10 08:27:09;;;;;;;11.80;8.40;;;;;;;12.72;67.38;101120.48;108967;277;38263;-72
2023/10/10 08:29:49;;;;;;;9.70;8.70;;;;;;;12.56;67.65;101116.66;108948;277;38279;-71
2023/10/10 08:32:27;;;;;;;11.00;9.00;;;;;;;12.44;67.96;101117.41;108987;277;39289;-69
2023/10/10 08:35:05;;;;;;;8.90;8.00;;;;;;;12.33;67.96;101112.33;108967;277;38748;-69
2023/10/10 08:37:39;;;;;;;9.10;8.10;;;;;;;12.26;68.72;101110.51;109047;277;39186;-69
2023/10/10 08:40:19;;;;;;;11.30;8.60;;;;;;;12.26;69.06;101108.20;109007;277;39164;-69
2023/10/10 08:42:59;;;;;;;10.90;9.70;;;;;;;12.30;69.18;101104.37;108956;277;38414;-69
2023/10/10 08:45:43;;;;;;;12.30;10.50;;;;;;;12.40;68.79;101100.73;109044;277;38458;-71
2023/10/10 08:48:26;;;;;;;10.40;9.10;;;;;;;12.49;68.55;101102.19;109018;277;38024;-69
2023/10/10 08:51:07;;;;;;;10.60;9.50;;;;;;;12.53;67.80;101102.39;109018;277;38298;-69
2023/10/10 08:53:44;;;;;;;12.40;10.00;;;;;;;12.47;66.91;101102.24;108961;277;39898;-68
2023/10/10 08:56:20;;;;;;;10.10;9.10;;;;;;;12.42;66.85;101101.39;108945;277;38344;-71
2023/10/10 08:58:54;;;;;;;11.80;9.40;;;;;;;12.35;66.26;101103.86;108952;277;38300;-71
2023/10/10 09:01:42;;;;;;;10.60;9.50;;;;;;;12.31;66.84;101104.17;108969;277;39338;-71
2023/10/10 09:04:19;;;;;;;10.60;9.00;;;;;;;12.30;66.68;101104.23;108935;277;38238;-69
2023/10/10 09:06:58;;;;;;;9.20;8.30;;;;;;;12.35;66.64;101102.31;108938;277;39290;-72
2023/10/10 09:09:35;;;;;;;9.10;8.10;;;;;;;12.44;66.68;101100.95;108976;277;39691;-73
2023/10/10 09:12:14;;;;;;;9.50;8.40;;;;;;;12.53;65.79;101101.36;108973;277;38769;-70
2023/10/10 09:14:51;;;;;;;9.20;8.30;;;;;;;12.59;66.29;101100.98;108933;277;38914;-70
2023/10/10 09:17:35;;;;;;;8.60;7.80;;;;;;;12.80;66.66;101099.87;108997;277;38270;-71
2023/10/10 09:20:22;;;;;;;8.60;7.70;;;;;;;13.29;67.05;101096.90;108973;277;39018;-71
2023/10/10 09:23:04;;;;;;;9.70;7.60;;;;;;;13.87;66.61;101095.84;109034;277;38265;-68
2023/10/10 09:25:43;;;;;;;7.60;6.60;;;;;;;14.55;65.27;101097.80;109023;277;38176;-70
2023/10/10 09:28:20;;;;;;;8.40;7.20;;;;;;;15.30;62.74;101094.83;109045;277;38321;-69
2023/10/10 09:31:00;;;;;;;7.70;6.50;;;;;;;15.98;60.45;101089.16;109054;277;38272;-70
2023/10/10 09:33:34;;;;;;;7.60;6.90;;;;;;;16.78;58.66;101089.71;109005;277;39737;-70
2023/10/10 09:36:15;;;;;;;8.70;6.80;;;;;;;17.53;56.32;101090.23;109014;277;39326;-72
2023/10/10 09:38:54;;;;;;;6.50;5.90;;;;;;;18.21;54.54;101096.23;108993;277;38732;-72
2023/10/10 09:41:36;;;;;;;7.10;6.10;;;;;;;18.81;52.46;101100.30;108977;277;39631;-72
2023/10/10 09:44:30;;;;;;;6.80;6.10;;;;;;;19.23;50.57;101100.59;108978;277;38231;-71
2023/10/10 09:47:37;;;;;;;8.10;6.70;;;;;;;19.40;49.50;101102.14;108962;277;39280;-72
2023/10/10 09:53:06;;;;;;;6.90;6.20;;;;;;;18.71;47.42;101105.73;108933;277;38519;-69
2023/10/10 09:55:42;;;;;;;9.00;6.50;;;;;;;18.32;48.19;101100.94;108931;277;38576;-71
2023/10/10 09:58:27;;;;;;;7.50;6.80;;;;;;;18.08;48.39;101097.94;108948;277;39770;-70
2023/10/10 10:01:14;;;;;;;7.80;6.40;;;;;;;17.64;47.78;101094.74;108960;277;40079;-71
2023/10/10 10:03:59;;;;;;;9.00;6.30;;;;;;;17.26;48.64;101094.89;108964;277;38284;-69
2023/10/10 10:06:54;;;;;;;6.80;6.10;;;;;;;17.03;49.35;101093.13;108973;277;38576;-72
2023/10/10 10:10:09;;;;;;;7.00;6.10;;;;;;;16.77;49.66;101088.00;108931;277;38551;-72
2023/10/10 10:13:13;;;;;;;7.10;6.30;;;;;;;16.48;49.76;101086.47;108989;277;38294;-70
2023/10/10 10:16:08;;;;;;;7.50;6.20;;;;;;;16.16;49.74;101084.92;109005;277;38182;-71
2023/10/10 10:18:52;;;;;;;7.30;6.10;;;;;;;15.85;49.50;101082.07;108982;277;38734;-71
2023/10/10 10:21:32;;;;;;;6.90;5.40;;;;;;;15.62;50.18;101076.44;109002;277;39472;-71
2023/10/10 10:27:23;;;;;;;6.60;4.80;;;;;;;15.46;51.11;101072.45;108981;277;39457;-71
2023/10/10 10:30:18;;;;;;;4.60;4.10;;;;;;;15.38;51.39;101074.06;108307;277;896378;-70
2023/10/10 10:32:58;;;;;;;4.30;3.60;;;;;;;15.28;51.11;101076.98;108987;277;37328;-71
2023/10/10 10:36:16;;;;;;;4.70;3.70;;;;;;;15.21;51.18;101075.00;108926;277;38376;-71
2023/10/10 10:41:51;;;;;;;3.80;3.00;;;;;;;15.03;51.10;101068.29;108945;277;38903;-69
2023/10/10 10:44:53;;;;;;;3.90;3.00;;;;;;;15.03;51.37;101069.73;108911;277;39491;-68
2023/10/10 10:47:59;;;;;;;4.60;3.20;;;;;;;15.00;51.10;101069.67;108464;277;680708;-70
2023/10/10 10:50:45;;;;;;;3.90;3.40;;;;;;;14.89;50.23;101069.43;108952;277;39613;-71
2023/10/10 10:53:34;;;;;;;3.70;3.30;;;;;;;14.71;50.25;101066.36;108977;277;38809;-71
2023/10/10 10:59:19;;;;;;;3.80;2.90;;;;;;;14.26;50.46;101062.50;109001;277;39459;-71
2023/10/10 11:01:57;;;;;;;3.50;3.20;;;;;;;14.10;51.01;101059.64;108901;277;175187;-70
2023/10/10 11:04:44;;;;;;;3.70;3.00;;;;;;;14.06;51.42;101058.61;108980;277;39385;-69
2023/10/10 11:07:27;;;;;;;3.90;3.10;;;;;;;14.05;51.89;101054.95;109004;277;39078;-71
2023/10/10 11:10:35;;;;;;;4.20;3.00;;;;;;;14.11;52.29;101054.68;108996;277;39435;-71
2023/10/10 11:13:12;;;;;;;4.10;2.60;;;;;;;14.16;51.56;101050.78;108897;277;38231;-72
2023/10/10 11:15:47;;;;;;;3.50;2.60;;;;;;;14.09;51.03;101050.77;108920;277;38555;-70
2023/10/10 11:18:34;;;;;;;3.00;2.50;;;;;;;14.00;51.01;101050.10;108897;277;38140;-70
2023/10/10 11:21:11;;;;;;;4.70;2.70;;;;;;;13.89;50.79;101046.15;108979;277;38172;-70
2023/10/10 11:23:46;;;;;;;3.70;2.50;;;;;;;13.81;50.88;101047.33;108910;277;40011;-69
2023/10/10 11:26:20;;;;;;;4.10;2.30;;;;;;;13.78;51.27;101048.71;108974;277;38704;-70
2023/10/10 11:28:59;;;;;;;3.90;2.10;;;;;;;13.72;51.60;101048.92;108937;277;38612;-67
2023/10/10 11:31:48;;;;;;;2.90;1.80;;;;;;;13.65;51.36;101049.38;108934;277;38616;-70
2023/10/10 11:34:42;;;;;;;3.10;1.90;;;;;;;13.65;51.63;101044.48;108881;278;38312;-69
2023/10/10 11:37:23;;;;;;;3.80;2.10;;;;;;;13.68;51.36;101045.95;108980;278;38523;-69
2023/10/10 11:40:31;;;;;;;3.40;2.70;;;;;;;13.71;51.16;101040.58;108987;278;38275;-69
2023/10/10 11:43:11;;;;;;;3.20;2.60;;;;;;;13.72;50.49;101038.41;108949;278;38965;-72
2023/10/10 11:45:51;;;;;;;3.50;2.20;;;;;;;13.67;50.43;101035.64;109004;278;38213;-69
2023/10/10 11:48:26;;;;;;;2.80;2.20;;;;;;;13.70;50.76;101036.94;108905;278;175188;-69
2023/10/10 11:51:00;;;;;;;2.70;2.30;;;;;;;13.70;50.76;101030.61;108978;278;38216;-70
2023/10/10 11:53:36;;;;;;;3.70;2.60;;;;;;;13.68;51.07;101035.42;108921;278;38937;-68
2023/10/10 11:56:13;;;;;;;2.60;2.00;;;;;;;13.65;51.21;101035.19;108935;278;39277;-70
2023/10/10 11:58:52;;;;;;;3.10;2.30;;;;;;;13.62;51.25;101031.98;108929;278;38184;-70
2023/10/10 12:04:30;;;;;;;4.70;2.20;;;;;;;13.71;51.27;101028.30;108958;278;38391;-71
2023/10/10 12:07:06;;;;;;;3.20;2.10;;;;;;;13.75;50.96;101026.02;108916;278;38281;-69
2023/10/10 12:09:45;;;;;;;3.20;2.10;;;;;;;13.80;50.95;101022.15;108924;278;39106;-68
2023/10/10 12:12:23;;;;;;;3.50;2.30;;;;;;;13.84;50.36;101020.05;108952;278;38225;-71
2023/10/10 12:15:00;;;;;;;2.90;2.10;;;;;;;13.87;50.30;101015.51;108920;278;38434;-71
2023/10/10 12:17:38;;;;;;;3.10;1.80;;;;;;;13.89;50.23;101019.83;108982;278;38946;-70
2023/10/10 12:20:15;;;;;;;2.50;1.70;;;;;;;13.89;50.34;101017.36;108956;278;38419;-69
2023/10/10 12:22:49;;;;;;;3.70;2.00;;;;;;;13.89;49.84;101017.57;109044;278;40175;-71
2023/10/10 12:25:27;;;;;;;4.40;2.00;;;;;;;13.87;49.75;101014.13;108949;278;38495;-71
2023/10/10 12:28:02;;;;;;;2.80;1.90;;;;;;;13.84;49.87;101012.83;109054;278;39511;-71
2023/10/10 12:30:40;;;;;;;3.90;2.40;;;;;;;13.84;49.55;101013.72;109026;278;38439;-70
2023/10/10 12:33:16;;;;;;;3.70;2.40;;;;;;;13.86;49.66;101010.30;109010;277;39227;-68
2023/10/10 12:35:56;;;;;;;2.60;2.10;;;;;;;13.92;50.17;101012.49;109018;277;39914;-68
2023/10/10 12:38:33;;;;;;;3.10;1.90;;;;;;;13.99;50.02;101015.40;108822;277;175268;-69
2023/10/10 12:41:11;;;;;;;2.30;1.90;;;;;;;14.02;49.69;101016.29;108900;277;38167;-71
2023/10/10 12:43:50;;;;;;;2.70;1.90;;;;;;;13.98;49.57;101015.44;108817;277;175194;-71
2023/10/10 12:46:23;;;;;;;;;;;;;;;13.92;49.77;101023.39;108864;277;174732;-71
2023/10/10 12:49:02;;;;;;;2.60;1.90;;;;;;;13.80;49.93;101026.52;108928;277;38702;-70
2023/10/10 12:51:38;;;;;;;2.40;1.90;;;;;;;13.71;50.16;101021.11;108833;277;175170;-69
2023/10/10 12:54:20;;;;;;;3.50;2.00;;;;;;;13.60;49.87;101022.08;108907;277;39559;-69
2023/10/10 12:57:01;;;;;;;3.40;2.20;;;;;;;13.47;49.64;101017.86;108958;277;39238;-70
2023/10/10 12:59:36;;;;;;;2.70;2.10;;;;;;;13.33;50.25;101016.14;108971;277;38478;-70
2023/10/10 13:02:15;;;;;;;4.10;2.60;;;;;;;13.21;50.65;101014.83;109008;277;38964;-70
2023/10/10 13:04:51;;;;;;;3.60;2.10;;;;;;;13.11;50.84;101017.65;108861;277;175229;-71
2023/10/10 13:07:25;;;;;;;3.70;2.00;;;;;;;13.01;51.10;101012.45;109008;277;38587;-69
2023/10/10 13:10:10;;;;;;;3.20;1.90;;;;;;;12.92;51.63;101006.81;109007;277;38784;-68
2023/10/10 13:12:47;;;;;;;2.60;2.10;;;;;;;12.85;51.92;101003.90;108912;277;176934;-72
2023/10/10 13:15:30;;;;;;;2.90;2.10;;;;;;;12.83;51.88;100999.95;109002;277;39016;-72
2023/10/10 13:18:20;;;;;;;3.30;2.40;;;;;;;12.85;51.75;101000.23;109008;277;38183;-71
2023/10/10 13:20:54;;;;;;;4.10;2.40;;;;;;;12.86;51.82;100995.45;109048;277;38134;-71
2023/10/10 13:23:31;;;;;;;3.90;2.60;;;;;;;12.88;51.56;100992.41;108969;277;38360;-71
2023/10/10 13:26:06;;;;;;;4.50;2.30;;;;;;;12.88;51.40;100989.09;109015;277;38466;-70
2023/10/10 13:28:44;;;;;;;3.30;2.10;;;;;;;12.89;51.27;100987.13;108944;277;39269;-68
2023/10/10 13:31:24;;;;;;;3.20;2.40;;;;;;;12.89;51.37;100980.12;108958;277;38184;-70
2023/10/10 13:34:01;;;;;;;5.60;3.10;;;;;;;12.88;51.07;100974.89;108971;277;40046;-70
2023/10/10 13:36:36;;;;;;;5.20;2.70;;;;;;;12.85;51.02;100970.79;109000;277;39354;-70
2023/10/10 13:39:17;;;;;;;2.40;1.90;;;;;;;12.83;50.96;100968.27;108966;277;37947;-71
2023/10/10 13:41:53;;;;;;;6.10;2.70;;;;;;;12.78;51.27;100968.10;108973;277;38252;-69
2023/10/10 13:44:33;;;;;;;2.90;2.00;;;;;;;12.74;51.28;100965.11;108968;277;38774;-68
2023/10/10 13:47:13;;;;;;;3.20;2.10;;;;;;;12.68;50.99;100963.06;108957;277;38662;-69
2023/10/10 13:50:28;;;;;;;3.80;1.90;;;;;;;12.59;51.07;100963.74;108925;277;39415;-69
2023/10/10 13:52:48;;;;;;;2.50;2.00;;;;;;;12.50;51.17;100959.67;109014;277;38147;-68
2023/10/10 13:55:33;;;;;;;2.20;1.80;;;;;;;12.43;51.00;100959.45;108987;277;38702;-68
2023/10/10 13:58:12;;;;;;;2.50;1.90;;;;;;;12.34;51.20;100960.98;109026;277;38516;-70
2023/10/10 14:01:13;;;;;;;2.70;1.90;;;;;;;12.25;51.38;100957.09;109017;277;38150;-70
2023/10/10 14:04:00;;;;;;;2.50;1.80;;;;;;;12.16;51.48;100955.30;108991;277;38134;-69
2023/10/10 14:06:46;;;;;;;2.80;1.90;;;;;;;12.08;51.66;100946.48;108977;277;38216;-70
2023/10/10 14:09:25;;;;;;;2.70;2.10;;;;;;;12.02;51.66;100941.66;108983;277;38445;-71
2023/10/10 14:12:08;;;;;;;2.50;1.70;;;;;;;11.94;51.87;100940.52;108972;277;39360;-67
2023/10/10 14:14:45;;;;;;;2.50;1.80;;;;;;;11.86;51.93;100943.23;108895;277;38287;-69
2023/10/10 14:17:26;;;;;;;2.60;2.10;;;;;;;11.79;51.89;100945.37;108982;277;38469;-70
2023/10/10 14:20:19;;;;;;;2.50;1.70;;;;;;;11.73;52.04;100943.66;108933;277;38312;-71
2023/10/10 14:22:58;;;;;;;;;;;;;;;11.64;52.64;100947.79;108960;277;38971;-68
2023/10/10 14:25:45;;;;;;;2.70;2.20;;;;;;;11.54;52.60;100951.62;108967;277;39034;-69
2023/10/10 14:28:28;;;;;;;4.40;2.60;;;;;;;11.49;52.56;100956.33;108973;277;38368;-67
2023/10/10 14:31:11;;;;;;;6.10;2.40;;;;;;;11.44;52.73;100955.98;109008;277;38269;-70
2023/10/10 14:33:50;;;;;;;5.10;2.60;;;;;;;11.38;52.96;100955.10;109007;277;38189;-71
2023/10/10 14:36:27;;;;;;;3.50;2.40;;;;;;;11.34;53.11;100949.64;109070;277;40091;-70
2023/10/10 14:39:08;;;;;;;3.50;2.30;;;;;;;11.30;53.39;100949.44;109056;277;39545;-70